Time;durP1;ratioP1;P1;durP2;ratioP2;P2;SDS_P1;SDS_P2;PMS_P1;PMS_P2;Temp;Humidity;BMP_temperature;BMP_pressure;BME280_temperature;BME280_humidity;BME280_pressure;Samples;Min_cycle;Max_cycle;Signal;HPM_P1;HPM_P2
2021/12/01 00:01:32;;;;;;;3.87;1.77;;;4.80;99.90;;;5.58;100.00;99052.59;4993458;28;20567;-63
2021/12/01 00:04:01;;;;;;;4.20;2.00;;;4.80;99.90;;;5.54;100.00;99047.94;4992898;28;20208;-62
2021/12/01 00:06:29;;;;;;;5.20;2.00;;;4.80;99.90;;;5.53;100.00;99052.44;4985965;28;20206;-61
2021/12/01 00:08:58;;;;;;;3.53;1.97;;;4.80;99.90;;;5.58;100.00;99049.13;4973432;28;20270;-63
2021/12/01 00:11:26;;;;;;;3.63;1.80;;;4.90;99.90;;;5.58;100.00;99055.28;4973075;28;20273;-62
2021/12/01 00:13:54;;;;;;;4.07;1.70;;;4.90;99.90;;;5.55;100.00;99045.03;4972983;28;20609;-62
2021/12/01 00:16:23;;;;;;;6.90;2.67;;;4.90;99.90;;;5.61;100.00;99048.72;4973197;28;20291;-62
2021/12/01 00:18:53;;;;;;;4.90;2.37;;;4.80;99.90;;;5.64;100.00;99040.25;4973390;28;20230;-62
2021/12/01 00:21:21;;;;;;;5.63;2.10;;;4.90;99.90;;;5.64;100.00;99034.91;4973226;28;20290;-62
2021/12/01 00:23:49;;;;;;;4.00;1.80;;;4.90;99.90;;;5.68;100.00;99039.59;4973245;28;20217;-62
2021/12/01 00:26:18;;;;;;;3.57;1.90;;;4.80;99.90;;;5.63;100.00;99014.59;4972690;28;20678;-62
2021/12/01 00:28:46;;;;;;;4.37;1.80;;;4.90;99.90;;;5.67;100.00;99021.94;4972706;28;20263;-65
2021/12/01 00:31:15;;;;;;;3.90;1.60;;;4.90;99.90;;;5.64;100.00;99017.03;4973014;28;20214;-63
2021/12/01 00:33:44;;;;;;;6.00;1.93;;;4.90;99.90;;;5.69;100.00;99019.88;4973281;28;20200;-63
2021/12/01 00:36:15;;;;;;;2.63;1.70;;;4.90;99.90;;;5.74;100.00;99021.91;4976725;28;20302;-63
2021/12/01 00:38:45;;;;;;;4.77;2.03;;;5.00;99.90;;;5.67;100.00;99007.75;4992521;28;20194;-63
2021/12/01 00:41:14;;;;;;;4.97;1.70;;;4.90;99.90;;;5.63;100.00;99014.59;4991809;28;20187;-62
2021/12/01 00:43:43;;;;;;;3.83;1.77;;;4.90;99.90;;;5.61;100.00;99005.97;4991489;28;20329;-62
2021/12/01 00:46:14;;;;;;;7.40;2.10;;;4.90;99.90;;;5.61;100.00;99005.97;4991687;28;20294;-63
2021/12/01 00:48:42;;;;;;;5.97;2.10;;;4.90;99.90;;;5.62;100.00;99004.91;4992905;28;20730;-62
2021/12/01 00:51:11;;;;;;;6.93;2.47;;;4.90;99.90;;;5.72;100.00;98997.25;4995282;28;20297;-63
2021/12/01 00:53:40;;;;;;;6.90;2.33;;;4.90;99.90;;;5.68;100.00;98991.50;4995245;28;20286;-64
2021/12/01 00:56:09;;;;;;;10.37;2.47;;;4.90;99.90;;;5.68;100.00;98983.50;4994722;28;20235;-62
2021/12/01 00:58:37;;;;;;;7.97;2.90;;;4.90;99.90;;;6.00;100.00;98979.75;4995120;28;20547;-62
2021/12/01 01:01:06;;;;;;;5.40;2.60;;;5.00;99.90;;;5.91;100.00;98989.13;4995164;28;20209;-62
2021/12/01 01:03:34;;;;;;;7.57;2.70;;;5.00;99.90;;;6.15;100.00;98979.44;4994670;28;20701;-62
2021/12/01 01:06:03;;;;;;;8.43;2.60;;;5.00;99.90;;;6.04;100.00;98972.97;4991500;28;20791;-62
2021/12/01 01:08:32;;;;;;;4.20;2.23;;;5.10;99.90;;;5.79;100.00;98972.13;4975275;28;20319;-63
2021/12/01 01:16:22;;;;;;;3.90;2.10;;;5.00;99.90;;;5.94;100.00;98974.47;4975410;28;20215;-62
2021/12/01 01:16:49;;;;;;;6.10;2.47;;;5.00;99.90;;;5.57;100.00;98964.69;4975343;28;20277;-63
2021/12/01 01:19:20;;;;;;;9.10;2.57;;;4.90;99.90;;;5.48;100.00;98956.13;4975298;28;20199;-62
2021/12/01 01:21:51;;;;;;;4.97;2.27;;;4.90;99.90;;;5.48;100.00;98952.66;4975020;28;20250;-63
2021/12/01 01:24:21;;;;;;;6.57;2.40;;;4.90;99.90;;;5.42;100.00;98946.31;4975401;28;20577;-62
2021/12/01 01:26:52;;;;;;;5.47;2.30;;;4.80;99.90;;;5.52;100.00;98933.31;4975029;28;20359;-63
2021/12/01 01:29:22;;;;;;;5.73;2.20;;;4.80;99.90;;;5.48;100.00;98924.06;4974902;28;20266;-62
2021/12/01 01:31:53;;;;;;;6.80;2.30;;;4.80;99.90;;;5.52;100.00;98919.13;4975134;28;20245;-62
2021/12/01 01:34:23;;;;;;;5.03;2.67;;;4.80;99.90;;;5.70;100.00;98916.53;4975007;28;20712;-63
2021/12/01 01:36:52;;;;;;;5.40;2.53;;;4.80;99.90;;;5.71;100.00;98912.81;4975037;28;20207;-62
2021/12/01 01:39:21;;;;;;;7.13;2.70;;;4.90;99.90;;;5.61;100.00;98909.81;4986019;28;20230;-63
2021/12/01 01:41:52;;;;;;;4.63;2.60;;;4.90;99.90;;;5.56;100.00;98909.66;4993666;28;20206;-63
2021/12/01 01:44:20;;;;;;;4.63;2.57;;;4.90;99.90;;;5.54;100.00;98914.38;4994436;28;20297;-63
2021/12/01 01:46:49;;;;;;;4.93;2.40;;;4.80;99.90;;;5.78;100.00;98901.03;4994295;28;20297;-62
2021/12/01 01:49:19;;;;;;;4.07;2.70;;;4.90;99.90;;;5.78;100.00;98901.03;4994390;28;20211;-62
2021/12/01 01:51:49;;;;;;;4.13;2.47;;;4.90;99.90;;;5.64;100.00;98894.16;4994072;28;20606;-62
2021/12/01 01:54:18;;;;;;;5.77;3.00;;;4.90;99.90;;;5.71;100.00;98886.91;4994237;28;20199;-62
2021/12/01 01:56:47;;;;;;;6.03;3.10;;;4.90;99.90;;;5.90;100.00;98885.13;4993401;28;20253;-63
2021/12/01 01:59:16;;;;;;;8.13;3.40;;;4.90;99.90;;;5.71;100.00;98878.06;4993979;28;20209;-62
2021/12/01 02:01:45;;;;;;;8.07;3.57;;;5.00;99.90;;;5.80;100.00;98874.88;4993306;28;20297;-62
2021/12/01 02:04:17;;;;;;;4.90;3.30;;;5.00;99.90;;;6.13;100.00;98863.88;4994031;28;20561;-63
2021/12/01 02:06:48;;;;;;;3.27;2.83;;;5.10;99.90;;;5.99;100.00;98868.56;4984993;28;20251;-61
2021/12/01 02:09:20;;;;;;;5.97;3.50;;;5.10;99.90;;;5.93;100.00;98866.78;4974300;28;20598;-62
2021/12/01 02:11:49;;;;;;;8.07;3.70;;;5.10;99.90;;;5.81;100.00;98862.34;4973824;28;20743;-62
2021/12/01 02:14:19;;;;;;;5.13;3.63;;;5.10;99.90;;;5.91;100.00;98854.69;4974428;28;20199;-64
2021/12/01 02:16:47;;;;;;;6.40;4.20;;;5.10;99.90;;;5.93;100.00;98855.28;4974334;28;20297;-62
2021/12/01 02:19:16;;;;;;;5.37;4.37;;;5.10;99.90;;;6.02;100.00;98846.72;4974457;28;20203;-63
2021/12/01 02:21:46;;;;;;;6.33;3.57;;;5.10;99.90;;;6.10;100.00;98837.63;4973941;28;20247;-62
2021/12/01 02:24:16;;;;;;;5.67;3.90;;;5.20;99.90;;;6.17;100.00;98825.78;4974275;28;20321;-62
2021/12/01 02:26:51;;;;;;;7.50;3.80;;;5.20;99.90;;;6.15;100.00;98822.53;4973533;28;20580;-62
2021/12/01 02:29:23;;;;;;;5.53;3.50;;;5.20;99.90;;;5.99;100.00;98815.13;4982806;28;20268;-61
2021/12/01 02:31:52;;;;;;;5.07;3.47;;;5.20;99.90;;;6.02;100.00;98811.97;4993489;28;20298;-61
2021/12/01 02:34:26;;;;;;;6.20;3.87;;;5.20;99.90;;;5.96;100.00;98806.72;4993473;28;20564;-62
2021/12/01 02:36:58;;;;;;;3.90;3.30;;;5.20;99.90;;;6.08;100.00;98810.28;4993116;28;20231;-62
2021/12/01 02:39:28;;;;;;;3.57;3.03;;;5.20;99.90;;;6.09;100.00;98793.19;4993605;28;20806;-61
2021/12/01 02:42:00;;;;;;;3.13;2.60;;;5.30;99.90;;;5.97;100.00;98781.66;4993295;28;20289;-62
2021/12/01 02:44:29;;;;;;;4.23;2.67;;;5.20;99.90;;;5.96;100.00;98782.66;4992876;28;20306;-62
2021/12/01 02:46:58;;;;;;;3.37;2.77;;;5.20;99.90;;;6.06;100.00;98774.94;4993186;28;20238;-62
2021/12/01 02:49:26;;;;;;;3.53;2.70;;;5.20;99.90;;;6.18;100.00;98771.28;4993250;28;20242;-63
2021/12/01 02:51:57;;;;;;;4.50;2.93;;;5.20;99.90;;;6.09;100.00;98767.28;4993073;28;20223;-62
2021/12/01 02:54:29;;;;;;;5.63;2.67;;;5.30;99.90;;;6.14;100.00;98766.59;4993199;28;20229;-61
2021/12/01 02:56:58;;;;;;;3.90;2.97;;;5.30;99.90;;;6.21;100.00;98751.28;4992562;28;20286;-62
2021/12/01 02:59:27;;;;;;;4.80;3.17;;;5.30;99.90;;;6.03;100.00;98754.00;4993007;28;20302;-61
2021/12/01 03:01:56;;;;;;;3.80;2.63;;;5.30;99.90;;;6.09;100.00;98742.41;4992823;28;20300;-61
2021/12/01 03:04:26;;;;;;;5.37;3.13;;;5.30;99.90;;;6.25;100.00;98739.13;4992856;28;20231;-62
2021/12/01 03:06:57;;;;;;;4.83;3.63;;;5.30;99.90;;;6.17;100.00;98739.44;4992714;28;20205;-61
2021/12/01 03:09:26;;;;;;;4.93;3.40;;;5.30;99.90;;;6.18;100.00;98725.84;4992473;28;20663;-61
2021/12/01 03:11:55;;;;;;;3.93;3.17;;;5.30;99.90;;;6.05;100.00;98717.19;4991752;28;20234;-62
2021/12/01 03:14:24;;;;;;;4.20;3.50;;;5.40;99.90;;;6.04;100.00;98723.56;4992417;28;20669;-60
2021/12/01 03:16:54;;;;;;;5.40;3.60;;;5.30;99.90;;;6.33;100.00;98708.56;4992785;28;20206;-62
2021/12/01 03:19:23;;;;;;;4.07;3.67;;;5.30;99.90;;;6.50;100.00;98709.53;4992660;28;20183;-62
2021/12/01 03:21:51;;;;;;;3.50;3.17;;;5.40;99.90;;;6.37;100.00;98704.38;4992428;28;20235;-61
2021/12/01 03:24:21;;;;;;;5.27;3.53;;;5.50;99.90;;;6.23;100.00;98690.41;4992127;28;20262;-61
2021/12/01 03:26:49;;;;;;;3.50;3.20;;;5.40;99.90;;;6.21;100.00;98687.13;4992009;28;20219;-62
2021/12/01 03:29:17;;;;;;;4.43;3.43;;;5.40;99.90;;;6.28;100.00;98692.38;4992123;28;20598;-62
2021/12/01 03:31:46;;;;;;;5.83;3.33;;;5.40;99.90;;;6.34;100.00;98670.91;4992527;28;20322;-61
2021/12/01 03:34:14;;;;;;;4.47;3.30;;;5.50;99.90;;;6.46;100.00;98679.75;4992398;28;20254;-61
2021/12/01 03:36:43;;;;;;;3.70;3.30;;;5.50;99.90;;;6.24;100.00;98659.94;4992441;28;20286;-62
2021/12/01 03:39:11;;;;;;;3.37;2.83;;;5.40;99.90;;;6.27;100.00;98654.16;4992308;28;20286;-61
2021/12/01 03:41:41;;;;;;;3.73;3.00;;;5.40;99.90;;;6.54;100.00;98647.34;4992216;28;20301;-61
2021/12/01 03:44:10;;;;;;;4.57;3.13;;;5.50;99.90;;;6.37;100.00;98640.22;4992220;28;20426;-62
2021/12/01 03:46:39;;;;;;;4.67;2.70;;;5.50;99.90;;;6.26;100.00;98638.34;4992060;28;20210;-61
2021/12/01 03:49:07;;;;;;;3.33;2.67;;;5.50;99.90;;;6.24;100.00;98635.88;4991957;28;20318;-61
2021/12/01 03:51:35;;;;;;;2.97;2.60;;;5.40;99.90;;;6.10;100.00;98629.13;4992256;28;20297;-61
2021/12/01 03:54:04;;;;;;;3.63;2.53;;;5.40;99.90;;;6.33;100.00;98621.13;4992223;28;20214;-62
2021/12/01 03:56:33;;;;;;;2.80;2.50;;;5.40;99.90;;;6.22;100.00;98614.72;4992116;28;20207;-60
2021/12/01 03:59:05;;;;;;;2.73;2.23;;;5.40;99.90;;;6.25;100.00;98613.47;4991630;28;20294;-60
2021/12/01 04:01:34;;;;;;;3.03;2.57;;;5.40;99.90;;;6.27;100.00;98611.38;4991969;28;20616;-62
2021/12/01 04:04:03;;;;;;;2.77;2.47;;;5.40;99.90;;;6.32;100.00;98610.66;4991997;28;20211;-61
2021/12/01 04:06:32;;;;;;;2.83;2.57;;;5.40;99.90;;;6.29;100.00;98611.97;4992009;28;20221;-61
2021/12/01 04:09:01;;;;;;;2.77;2.30;;;5.50;99.90;;;6.15;100.00;98606.00;4991995;28;20310;-62
2021/12/01 04:11:30;;;;;;;3.07;2.63;;;5.40;99.90;;;6.04;100.00;98597.94;4992319;28;20199;-61
2021/12/01 04:13:58;;;;;;;2.80;2.53;;;5.40;99.90;;;6.08;100.00;98602.63;4991716;28;20310;-62
2021/12/01 04:16:27;;;;;;;2.83;2.53;;;5.40;99.90;;;6.01;100.00;98591.22;4992036;28;20217;-61
2021/12/01 04:18:56;;;;;;;3.13;2.83;;;5.30;99.90;;;6.18;100.00;98594.84;4991802;28;20678;-61
2021/12/01 04:21:26;;;;;;;2.50;2.30;;;5.40;99.90;;;6.12;100.00;98593.06;4991780;28;20221;-62
2021/12/01 04:23:56;;;;;;;2.60;2.40;;;5.40;99.90;;;6.12;100.00;98582.38;4994017;28;20214;-61
2021/12/01 04:26:26;;;;;;;2.43;2.23;;;5.40;99.90;;;6.41;100.00;98582.56;4995995;28;20313;-61
2021/12/01 04:28:56;;;;;;;3.07;2.57;;;5.40;99.90;;;6.33;100.00;98588.22;4995473;28;20234;-61
2021/12/01 04:31:28;;;;;;;2.90;2.40;;;5.50;99.90;;;6.30;100.00;98572.66;4995754;28;20210;-62
2021/12/01 04:33:57;;;;;;;2.87;2.30;;;5.40;99.90;;;6.36;100.00;98577.09;4995577;28;20266;-61
2021/12/01 04:36:29;;;;;;;2.40;2.00;;;5.40;99.90;;;6.29;100.00;98577.19;4995957;28;20282;-61
2021/12/01 04:38:57;;;;;;;2.67;2.27;;;5.40;99.90;;;6.35;100.00;98578.94;4995491;28;20204;-63
2021/12/01 04:41:28;;;;;;;2.47;1.83;;;5.50;99.90;;;6.16;100.00;98578.22;4995466;28;20202;-62
2021/12/01 04:44:00;;;;;;;2.97;1.80;;;5.40;99.90;;;6.18;100.00;98567.28;4995333;28;20193;-62
2021/12/01 04:46:29;;;;;;;2.83;1.90;;;5.40;99.90;;;6.31;100.00;98566.28;4995799;28;20302;-62
2021/12/01 04:48:58;;;;;;;2.03;1.70;;;5.40;99.90;;;6.24;100.00;98562.88;4995637;28;20604;-63
2021/12/01 04:51:26;;;;;;;2.00;1.80;;;5.50;99.90;;;6.38;100.00;98557.06;4995593;28;20230;-61
2021/12/01 04:53:56;;;;;;;1.40;1.30;;;5.50;99.90;;;6.38;100.00;98549.06;4995274;28;20203;-61
2021/12/01 04:56:24;;;;;;;1.37;1.27;;;5.50;99.90;;;6.32;100.00;98549.16;4995507;28;20245;-62
2021/12/01 04:58:52;;;;;;;1.60;1.30;;;5.50;99.90;;;6.46;100.00;98537.22;4995332;28;20243;-62
2021/12/01 05:01:20;;;;;;;1.30;1.10;;;5.50;99.90;;;6.45;100.00;98544.41;4995033;28;20290;-61
2021/12/01 05:03:50;;;;;;;1.77;1.10;;;5.50;99.90;;;6.49;100.00;98542.09;4995461;28;20207;-62
2021/12/01 05:06:19;;;;;;;1.10;0.93;;;5.60;99.90;;;6.39;100.00;98533.84;4994957;28;20316;-62
2021/12/01 05:08:48;;;;;;;1.10;1.00;;;5.60;99.90;;;6.28;100.00;98532.78;4995331;28;20289;-62
2021/12/01 05:11:16;;;;;;;0.97;0.97;;;5.50;99.90;;;6.52;100.00;98523.72;4995146;28;20206;-61
2021/12/01 05:14:05;;;;;;;1.60;0.80;;;5.60;99.90;;;6.49;100.00;98518.84;4995071;28;20312;-62
2021/12/01 05:16:35;;;;;;;2.23;0.80;;;5.60;99.90;;;6.45;100.00;98517.66;4995173;28;20237;-61
2021/12/01 05:19:05;;;;;;;1.43;0.80;;;5.60;99.90;;;6.41;100.00;98515.69;4995317;28;20237;-61
2021/12/01 05:21:34;;;;;;;1.00;0.73;;;5.60;99.90;;;6.49;100.00;98513.50;4995155;28;20208;-61
2021/12/01 05:24:03;;;;;;;1.90;0.73;;;5.60;99.90;;;6.38;100.00;98506.28;4995116;28;20203;-61
2021/12/01 05:26:32;;;;;;;0.77;0.77;;;5.60;99.90;;;6.48;100.00;98498.47;4994295;28;20234;-63
2021/12/01 05:29:00;;;;;;;1.53;0.80;;;5.60;99.90;;;6.51;100.00;98503.34;4994355;28;20811;-62
2021/12/01 05:31:33;;;;;;;1.50;0.97;;;5.60;99.90;;;6.41;100.00;98494.31;4994694;28;20198;-61
2021/12/01 05:34:02;;;;;;;0.87;0.87;;;5.60;99.90;;;6.30;100.00;98482.56;4994947;28;20209;-62
2021/12/01 05:36:31;;;;;;;0.93;0.83;;;5.60;99.90;;;6.53;100.00;98481.75;4993453;28;20298;-62
2021/12/01 05:39:00;;;;;;;0.90;0.77;;;5.70;99.90;;;6.49;100.00;98477.91;4994812;28;20227;-62
2021/12/01 05:41:28;;;;;;;1.57;0.70;;;5.60;99.90;;;6.43;100.00;98471.63;4994473;28;20209;-63
2021/12/01 05:43:56;;;;;;;2.27;1.90;;;5.60;99.90;;;6.46;100.00;98465.00;4994577;28;20207;-60
2021/12/01 05:46:27;;;;;;;1.23;0.70;;;5.60;99.90;;;6.40;100.00;98463.25;4994440;28;20226;-62
2021/12/01 05:48:55;;;;;;;1.30;0.90;;;5.60;99.90;;;6.44;100.00;98457.22;4994726;28;20210;-61
2021/12/01 05:51:24;;;;;;;0.80;0.80;;;5.60;99.90;;;6.45;100.00;98452.66;4994041;28;20246;-62
2021/12/01 05:53:54;;;;;;;0.90;0.90;;;5.60;99.90;;;6.55;100.00;98455.53;4994291;28;20239;-63
2021/12/01 05:56:22;;;;;;;0.80;0.80;;;5.70;99.90;;;6.63;100.00;98442.63;4993674;28;20895;-62
2021/12/01 05:58:50;;;;;;;1.50;1.00;;;5.70;99.90;;;6.53;100.00;98447.75;4993735;28;20709;-61
2021/12/01 06:01:19;;;;;;;0.90;0.90;;;5.70;99.90;;;6.59;100.00;98435.31;4994061;28;20225;-62
2021/12/01 06:03:47;;;;;;;2.20;1.00;;;5.70;99.90;;;6.71;100.00;98436.91;4994339;28;20211;-62
2021/12/01 06:06:15;;;;;;;0.90;0.90;;;5.80;99.90;;;6.60;100.00;98435.06;4993985;28;20225;-61
2021/12/01 06:08:44;;;;;;;1.43;0.90;;;5.80;99.90;;;6.47;100.00;98421.97;4994559;28;20207;-61
2021/12/01 06:11:14;;;;;;;1.53;0.80;;;5.80;99.90;;;6.48;100.00;98418.22;4994508;28;20496;-61
2021/12/01 06:13:45;;;;;;;0.87;0.87;;;5.70;99.90;;;6.59;100.00;98417.41;4994078;28;20217;-62
2021/12/01 06:16:13;;;;;;;0.80;0.80;;;5.80;99.90;;;6.69;100.00;98411.44;4994319;28;20274;-61
2021/12/01 06:18:41;;;;;;;0.83;0.83;;;5.80;99.90;;;6.60;100.00;98407.50;4994424;28;20696;-62
2021/12/01 06:21:10;;;;;;;2.30;0.90;;;5.80;99.90;;;6.55;100.00;98392.16;4994370;28;20293;-61
2021/12/01 06:23:38;;;;;;;1.37;1.10;;;5.80;99.90;;;6.42;100.00;98413.84;4994674;28;20223;-61
2021/12/01 06:26:06;;;;;;;1.30;1.20;;;5.80;99.90;;;6.61;100.00;98401.13;4994044;28;20226;-62
2021/12/01 06:28:37;;;;;;;1.20;1.10;;;5.80;99.90;;;6.64;100.00;98393.44;4993824;28;20632;-61
2021/12/01 06:31:06;;;;;;;3.40;2.10;;;5.80;99.90;;;6.53;100.00;98390.81;4994273;28;20287;-62
2021/12/01 06:33:34;;;;;;;2.73;1.67;;;5.80;99.90;;;6.41;100.00;98393.47;4994184;28;20207;-62
2021/12/01 06:36:03;;;;;;;2.47;1.60;;;5.80;99.90;;;6.43;100.00;98395.94;4994151;28;20199;-61
2021/12/01 06:38:32;;;;;;;2.10;1.37;;;5.80;99.90;;;6.42;100.00;98397.78;4994254;28;20210;-62
2021/12/01 06:41:00;;;;;;;1.93;1.10;;;5.80;99.90;;;6.58;100.00;98397.03;4993678;28;20211;-62
2021/12/01 06:43:29;;;;;;;1.27;1.17;;;5.80;99.90;;;6.50;100.00;98401.94;4993976;28;20550;-62
2021/12/01 06:45:58;;;;;;;1.27;1.17;;;5.80;99.90;;;6.56;100.00;98406.38;4993703;28;20314;-61
2021/12/01 06:48:27;;;;;;;5.10;1.20;;;5.80;99.90;;;6.73;100.00;98402.69;4993977;28;20206;-61
2021/12/01 06:50:55;;;;;;;1.60;1.20;;;5.80;99.90;;;6.74;100.00;98408.84;4993850;28;20633;-61
2021/12/01 06:53:26;;;;;;;1.40;1.27;;;5.90;99.90;;;6.62;100.00;98414.25;4993863;28;20214;-61
2021/12/01 06:55:54;;;;;;;1.40;1.30;;;5.90;99.90;;;6.55;100.00;98415.41;4993763;28;20278;-62
2021/12/01 06:58:23;;;;;;;1.57;1.43;;;5.90;99.90;;;6.53;100.00;98413.00;4993308;28;20731;-61
2021/12/01 07:00:51;;;;;;;1.83;1.43;;;5.90;99.90;;;6.50;100.00;98424.16;4993835;28;20218;-62
2021/12/01 07:03:21;;;;;;;1.63;1.37;;;5.80;99.90;;;6.42;100.00;98421.03;4993387;28;20213;-61
2021/12/01 07:05:49;;;;;;;1.27;1.17;;;5.80;99.90;;;6.54;100.00;98411.97;4993271;28;20550;-63
2021/12/01 07:08:18;;;;;;;1.10;1.00;;;5.80;99.90;;;6.48;100.00;98404.06;4993612;28;20211;-62
2021/12/01 07:10:46;;;;;;;1.20;1.10;;;5.80;99.90;;;6.49;100.00;98397.66;4992888;28;20728;-64
2021/12/01 07:13:14;;;;;;;1.40;1.20;;;5.80;99.90;;;6.50;100.00;98396.59;4993199;28;20206;-62
2021/12/01 07:15:43;;;;;;;1.50;1.40;;;5.80;99.90;;;6.57;100.00;98379.38;4993283;28;20671;-62
2021/12/01 07:18:12;;;;;;;1.63;1.53;;;5.80;99.90;;;6.71;100.00;98371.88;4992987;28;20217;-63
2021/12/01 07:20:45;;;;;;;1.80;1.30;;;5.80;99.90;;;6.54;100.00;98373.69;4992691;28;20249;-61
2021/12/01 07:23:13;;;;;;;1.90;1.50;;;5.80;99.90;;;6.52;100.00;98365.09;4992292;28;20294;-61
2021/12/01 07:26:00;;;;;;;1.80;1.70;;;5.80;99.90;;;6.59;100.00;98352.38;4992109;28;20639;-62
2021/12/01 07:28:29;;;;;;;2.00;1.80;;;5.80;99.90;;;6.85;100.00;98341.91;4991745;28;20706;-61
2021/12/01 07:30:57;;;;;;;1.70;1.60;;;5.80;99.90;;;6.72;100.00;98347.56;4992284;28;20210;-61
2021/12/01 07:33:30;;;;;;;1.63;1.53;;;5.80;99.90;;;6.62;100.00;98343.88;4992330;28;20191;-62
2021/12/01 07:36:00;;;;;;;1.50;1.40;;;5.80;99.90;;;6.59;100.00;98336.34;4993239;28;20413;-61
2021/12/01 07:38:28;;;;;;;1.73;1.60;;;5.80;99.90;;;6.61;100.00;98334.25;4991869;28;20809;-61
2021/12/01 07:40:56;;;;;;;1.40;1.30;;;5.80;99.90;;;6.72;100.00;98331.50;4992295;28;20215;-61
2021/12/01 07:43:25;;;;;;;1.87;1.57;;;5.90;99.90;;;6.67;100.00;98327.91;4991959;28;20302;-63
2021/12/01 07:45:53;;;;;;;1.70;1.60;;;5.90;99.90;;;6.61;100.00;98321.69;4991777;28;20318;-63
2021/12/01 07:48:21;;;;;;;1.90;1.80;;;5.90;99.90;;;6.69;100.00;98315.94;4991743;28;20523;-62
2021/12/01 07:50:49;;;;;;;1.70;1.60;;;5.90;99.90;;;6.79;100.00;98310.78;4992783;28;20298;-62
2021/12/01 07:53:19;;;;;;;1.90;1.53;;;6.00;99.90;;;6.66;100.00;98300.38;4992996;28;20210;-62
2021/12/01 07:55:47;;;;;;;1.80;1.70;;;6.00;99.90;;;6.68;100.00;98305.47;4993137;28;20211;-62
2021/12/01 07:58:16;;;;;;;2.33;1.70;;;6.00;99.90;;;6.65;100.00;98293.38;4993236;28;20554;-62
2021/12/01 08:00:44;;;;;;;1.63;1.53;;;6.00;99.90;;;6.73;100.00;98302.91;4996924;28;20781;-62
2021/12/01 08:03:13;;;;;;;1.57;1.47;;;6.00;99.90;;;6.68;100.00;98289.44;4996636;28;20559;-67
2021/12/01 08:05:42;;;;;;;1.80;1.70;;;6.00;99.90;;;6.55;100.00;98281.69;4993471;28;20218;-66
2021/12/01 08:08:11;;;;;;;1.70;1.60;;;6.00;99.90;;;6.68;100.00;98281.41;4994100;28;20245;-64
2021/12/01 08:10:41;;;;;;;1.80;1.70;;;6.00;99.90;;;6.62;100.00;98269.78;4993671;28;20286;-65
2021/12/01 08:13:09;;;;;;;1.50;1.40;;;6.00;99.90;;;6.69;100.00;98264.28;4993392;28;20191;-64
2021/12/01 08:15:47;;;;;;;2.63;1.87;;;6.00;99.90;;;6.75;100.00;98258.78;4993371;28;20202;-66
2021/12/01 08:18:16;;;;;;;2.47;1.87;;;6.10;99.90;;;6.86;100.00;98246.38;4989704;28;20236;-65
2021/12/01 08:20:46;;;;;;;1.57;1.40;;;6.10;99.90;;;6.88;100.00;98238.94;4983903;28;20230;-66
2021/12/01 08:23:14;;;;;;;2.03;1.60;;;6.10;99.90;;;6.94;100.00;98233.41;4984887;28;20212;-65
2021/12/01 08:25:44;;;;;;;1.93;1.70;;;6.20;99.90;;;7.04;100.00;98246.13;4992211;28;20246;-61
2021/12/01 08:28:13;;;;;;;1.90;1.70;;;6.30;99.90;;;7.03;100.00;98231.97;4992423;28;20321;-59
2021/12/01 08:30:41;;;;;;;1.47;1.37;;;6.30;99.90;;;6.97;100.00;98229.44;4993313;28;20303;-60
2021/12/01 08:33:10;;;;;;;1.70;1.60;;;6.30;99.90;;;7.01;100.00;98233.25;4993571;28;20207;-62
2021/12/01 08:35:40;;;;;;;1.50;1.40;;;6.30;99.90;;;7.10;100.00;98229.13;4993202;28;20206;-64
2021/12/01 08:38:08;;;;;;;1.60;1.50;;;6.30;99.90;;;7.09;100.00;98225.63;4992980;28;20204;-63
2021/12/01 08:40:37;;;;;;;1.40;1.30;;;6.30;99.90;;;7.08;100.00;98215.97;4993136;28;20658;-62
2021/12/01 08:43:06;;;;;;;1.40;1.30;;;6.40;99.90;;;7.26;100.00;98222.91;4992483;28;20745;-59
2021/12/01 08:45:34;;;;;;;1.53;1.43;;;6.40;99.90;;;7.24;100.00;98217.81;4992988;28;20203;-56
2021/12/01 08:48:05;;;;;;;2.03;1.60;;;6.50;99.90;;;7.41;100.00;98218.59;4993084;28;20208;-62
2021/12/01 08:50:35;;;;;;;2.50;1.60;;;6.50;99.90;;;7.31;100.00;98214.94;4993060;28;20238;-61
2021/12/01 08:53:03;;;;;;;1.53;1.43;;;6.50;99.90;;;7.20;100.00;98214.00;4991889;28;20198;-61
2021/12/01 08:55:31;;;;;;;1.93;1.80;;;6.50;99.90;;;7.43;100.00;98197.72;4992197;28;20207;-59
2021/12/01 08:58:11;;;;;;;1.50;1.40;;;6.50;99.90;;;7.35;100.00;98208.88;4992594;28;20198;-60
2021/12/01 09:00:43;;;;;;;1.63;1.53;;;6.60;99.90;;;7.47;100.00;98198.84;4993227;28;20282;-62
2021/12/01 09:03:14;;;;;;;1.83;1.70;;;6.60;99.90;;;7.48;100.00;98202.34;4992711;28;20223;-61
2021/12/01 09:05:44;;;;;;;1.80;1.50;;;6.60;99.90;;;7.56;100.00;98203.78;4992832;28;20195;-61
2021/12/01 09:08:13;;;;;;;1.73;1.63;;;6.70;99.90;;;7.39;100.00;98196.59;4993628;28;20333;-67
2021/12/01 09:10:42;;;;;;;1.50;1.40;;;6.70;99.90;;;7.49;100.00;98197.78;4991624;28;20190;-68
2021/12/01 09:13:12;;;;;;;1.60;1.50;;;6.70;99.90;;;7.53;100.00;98189.00;4991097;28;20215;-62
2021/12/01 09:15:42;;;;;;;2.03;1.50;;;6.70;99.90;;;7.61;100.00;98185.88;4992199;28;20188;-62
2021/12/01 09:18:11;;;;;;;2.10;1.50;;;6.70;99.90;;;7.69;100.00;98171.25;4992414;28;20231;-65
2021/12/01 09:20:39;;;;;;;1.60;1.50;;;6.70;99.90;;;7.71;100.00;98167.28;4991884;28;20189;-59
2021/12/01 09:23:07;;;;;;;1.17;1.00;;;6.80;99.90;;;7.62;100.00;98170.63;4991893;28;20227;-61
2021/12/01 09:25:36;;;;;;;2.17;1.90;;;6.80;99.90;;;7.81;100.00;98169.25;4991540;28;20262;-63
2021/12/01 09:28:18;;;;;;;2.07;1.87;;;6.90;99.90;;;7.92;100.00;98173.66;4991537;28;20317;-66
2021/12/01 09:30:46;;;;;;;1.43;1.30;;;7.00;99.90;;;7.75;100.00;98171.06;4992181;28;20226;-65
2021/12/01 09:33:16;;;;;;;1.40;1.30;;;6.90;99.90;;;7.69;100.00;98161.34;4986632;28;21091;-64
2021/12/01 09:35:46;;;;;;;1.37;1.17;;;6.90;99.90;;;7.60;100.00;98156.66;4973262;28;20197;-64
2021/12/01 09:38:17;;;;;;;1.33;1.23;;;6.90;99.90;;;7.59;100.00;98149.69;4972238;28;20254;-63
2021/12/01 09:40:51;;;;;;;2.70;2.20;;;6.80;99.90;;;7.58;100.00;98142.75;4972525;28;20196;-63
2021/12/01 09:43:28;;;;;;;1.20;1.10;;;6.80;99.90;;;7.56;100.00;98134.91;4972068;28;20189;-62
2021/12/01 09:45:59;;;;;;;1.70;1.23;;;6.80;99.90;;;7.86;100.00;98121.88;4972455;28;20282;-63
2021/12/01 09:48:29;;;;;;;1.40;1.10;;;6.90;99.90;;;7.83;100.00;98119.69;4972471;28;20304;-60
2021/12/01 09:51:13;;;;;;;1.37;1.17;;;6.90;99.90;;;8.01;100.00;98118.53;4972532;28;20188;-69
2021/12/01 09:53:42;;;;;;;1.40;1.30;;;6.90;99.90;;;7.84;100.00;98107.09;4974733;28;20211;-69
2021/12/01 09:56:11;;;;;;;1.33;1.20;;;7.00;99.90;;;8.00;100.00;98114.25;4974129;28;20212;-69
2021/12/01 09:58:43;;;;;;;1.50;1.40;;;7.00;99.90;;;7.80;100.00;98112.16;4973499;28;20294;-67
2021/12/01 10:01:15;;;;;;;1.80;1.70;;;7.00;99.90;;;7.84;100.00;98102.56;4972575;28;20196;-66
2021/12/01 10:03:44;;;;;;;1.93;1.40;;;7.00;99.90;;;7.91;100.00;98091.63;4972219;28;20189;-66
2021/12/01 10:06:15;;;;;;;2.10;1.30;;;7.00;99.90;;;8.07;100.00;98082.66;4972261;28;20290;-60
2021/12/01 10:08:45;;;;;;;1.73;1.20;;;7.10;99.90;;;8.03;100.00;98077.03;4971739;28;20242;-61
2021/12/01 10:11:17;;;;;;;1.20;1.10;;;7.10;99.90;;;8.05;100.00;98066.81;4972126;28;20234;-60
2021/12/01 10:13:51;;;;;;;1.30;1.20;;;7.00;99.90;;;8.12;100.00;98067.44;4978425;28;20283;-63
2021/12/01 10:16:22;;;;;;;2.23;1.50;;;7.10;99.90;;;8.17;100.00;98059.44;4991652;28;20214;-63
2021/12/01 10:18:54;;;;;;;3.13;1.20;;;7.10;99.90;;;8.06;100.00;98057.75;4991045;28;20188;-63
2021/12/01 10:21:30;;;;;;;1.10;1.10;;;7.10;99.90;;;8.14;100.00;98059.94;4991053;28;20191;-64
2021/12/01 10:24:01;;;;;;;1.33;1.10;;;7.10;99.90;;;8.04;100.00;98061.72;4991479;28;20293;-64
2021/12/01 10:26:32;;;;;;;1.30;1.10;;;7.10;99.90;;;8.19;100.00;98048.44;4988873;28;20280;-64
2021/12/01 10:29:05;;;;;;;1.40;1.20;;;7.20;99.90;;;8.01;100.00;98048.84;4971504;28;20235;-67
2021/12/01 10:31:40;;;;;;;1.30;1.20;;;7.10;99.90;;;8.12;100.00;98050.53;4972782;28;20275;-69
2021/12/01 10:34:21;;;;;;;1.30;1.10;;;7.10;99.90;;;8.11;100.00;98035.50;4972902;28;20188;-70
2021/12/01 10:37:06;;;;;;;0.80;0.80;;;7.20;99.90;;;8.05;100.00;98025.81;4972741;28;20184;-62
2021/12/01 10:39:34;;;;;;;1.17;0.93;;;7.10;99.90;;;8.17;100.00;98026.44;4973065;28;20288;-66